sensor_id;sensor_type;location;lat;lon;timestamp;P1;durP1;ratioP1;P2;durP2;ratioP2
7158;SDS011;63175;52.374;13.132;2023-02-12T00:00:04;4.00;;;2.10;;
7158;SDS011;63175;52.374;13.132;2023-02-12T00:02:31;5.40;;;2.00;;
7158;SDS011;63175;52.374;13.132;2023-02-12T00:04:58;6.03;;;2.80;;
7158;SDS011;63175;52.374;13.132;2023-02-12T00:07:29;3.00;;;2.80;;
7158;SDS011;63175;52.374;13.132;2023-02-12T00:09:56;4.23;;;3.07;;
7158;SDS011;63175;52.374;13.132;2023-02-12T00:12:23;5.20;;;3.00;;
7158;SDS011;63175;52.374;13.132;2023-02-12T00:14:50;3.67;;;2.43;;
7158;SDS011;63175;52.374;13.132;2023-02-12T00:17:16;3.23;;;2.10;;
7158;SDS011;63175;52.374;13.132;2023-02-12T00:19:43;4.23;;;2.23;;
7158;SDS011;63175;52.374;13.132;2023-02-12T00:22:11;3.00;;;1.87;;
7158;SDS011;63175;52.374;13.132;2023-02-12T00:24:40;3.93;;;2.30;;
7158;SDS011;63175;52.374;13.132;2023-02-12T00:27:06;4.33;;;2.40;;
7158;SDS011;63175;52.374;13.132;2023-02-12T00:29:33;4.80;;;2.47;;
7158;SDS011;63175;52.374;13.132;2023-02-12T00:32:01;6.10;;;2.83;;
7158;SDS011;63175;52.374;13.132;2023-02-12T00:34:28;2.90;;;2.40;;
7158;SDS011;63175;52.374;13.132;2023-02-12T00:36:55;7.03;;;3.37;;
7158;SDS011;63175;52.374;13.132;2023-02-12T00:39:22;5.57;;;2.70;;
7158;SDS011;63175;52.374;13.132;2023-02-12T00:41:50;6.23;;;2.60;;
7158;SDS011;63175;52.374;13.132;2023-02-12T00:44:17;2.73;;;2.50;;
7158;SDS011;63175;52.374;13.132;2023-02-12T00:46:44;5.00;;;2.87;;
7158;SDS011;63175;52.374;13.132;2023-02-12T00:49:11;9.93;;;2.60;;
7158;SDS011;63175;52.374;13.132;2023-02-12T00:51:38;3.27;;;2.93;;
7158;SDS011;63175;52.374;13.132;2023-02-12T00:54:05;6.43;;;2.77;;
7158;SDS011;63175;52.374;13.132;2023-02-12T00:56:31;2.20;;;1.93;;
7158;SDS011;63175;52.374;13.132;2023-02-12T00:59:00;4.23;;;2.20;;
7158;SDS011;63175;52.374;13.132;2023-02-12T01:01:26;3.43;;;2.10;;
7158;SDS011;63175;52.374;13.132;2023-02-12T01:03:53;5.40;;;2.70;;
7158;SDS011;63175;52.374;13.132;2023-02-12T01:06:20;5.77;;;2.50;;
7158;SDS011;63175;52.374;13.132;2023-02-12T01:08:48;3.70;;;2.70;;
7158;SDS011;63175;52.374;13.132;2023-02-12T01:11:16;7.93;;;2.77;;
7158;SDS011;63175;52.374;13.132;2023-02-12T01:13:43;6.33;;;2.60;;
7158;SDS011;63175;52.374;13.132;2023-02-12T01:16:14;3.30;;;2.30;;
7158;SDS011;63175;52.374;13.132;2023-02-12T01:18:43;3.80;;;2.60;;
7158;SDS011;63175;52.374;13.132;2023-02-12T01:21:11;3.67;;;2.40;;
7158;SDS011;63175;52.374;13.132;2023-02-12T01:23:39;3.13;;;2.13;;
7158;SDS011;63175;52.374;13.132;2023-02-12T01:26:06;5.93;;;2.23;;
7158;SDS011;63175;52.374;13.132;2023-02-12T01:28:35;4.90;;;2.37;;
7158;SDS011;63175;52.374;13.132;2023-02-12T01:31:06;2.60;;;1.73;;
7158;SDS011;63175;52.374;13.132;2023-02-12T01:33:35;2.57;;;2.00;;
7158;SDS011;63175;52.374;13.132;2023-02-12T01:36:02;4.57;;;2.50;;
7158;SDS011;63175;52.374;13.132;2023-02-12T01:38:29;4.30;;;2.83;;
7158;SDS011;63175;52.374;13.132;2023-02-12T01:41:00;3.70;;;1.70;;
7158;SDS011;63175;52.374;13.132;2023-02-12T01:43:28;5.53;;;2.23;;
7158;SDS011;63175;52.374;13.132;2023-02-12T01:45:57;5.17;;;2.53;;
7158;SDS011;63175;52.374;13.132;2023-02-12T01:48:26;2.50;;;2.10;;
7158;SDS011;63175;52.374;13.132;2023-02-12T01:50:56;4.83;;;2.23;;
7158;SDS011;63175;52.374;13.132;2023-02-12T01:53:24;6.50;;;2.87;;
7158;SDS011;63175;52.374;13.132;2023-02-12T01:55:57;2.37;;;1.80;;
7158;SDS011;63175;52.374;13.132;2023-02-12T01:58:28;3.90;;;1.77;;
7158;SDS011;63175;52.374;13.132;2023-02-12T02:00:59;3.37;;;2.20;;
7158;SDS011;63175;52.374;13.132;2023-02-12T02:03:27;1.83;;;1.73;;
7158;SDS011;63175;52.374;13.132;2023-02-12T02:05:58;3.90;;;2.00;;
7158;SDS011;63175;52.374;13.132;2023-02-12T02:08:29;3.57;;;2.77;;
7158;SDS011;63175;52.374;13.132;2023-02-12T02:10:56;2.83;;;2.00;;
7158;SDS011;63175;52.374;13.132;2023-02-12T02:13:24;4.23;;;2.67;;
7158;SDS011;63175;52.374;13.132;2023-02-12T02:16:11;3.07;;;1.97;;
7158;SDS011;63175;52.374;13.132;2023-02-12T02:18:44;6.30;;;2.90;;
7158;SDS011;63175;52.374;13.132;2023-02-12T02:21:30;6.03;;;2.40;;
7158;SDS011;63175;52.374;13.132;2023-02-12T02:24:27;6.97;;;2.93;;
7158;SDS011;63175;52.374;13.132;2023-02-12T02:27:15;4.00;;;2.50;;
7158;SDS011;63175;52.374;13.132;2023-02-12T02:33:09;4.70;;;2.47;;
7158;SDS011;63175;52.374;13.132;2023-02-12T02:35:46;7.40;;;2.77;;
7158;SDS011;63175;52.374;13.132;2023-02-12T02:38:20;4.43;;;2.57;;
7158;SDS011;63175;52.374;13.132;2023-02-12T02:40:52;2.50;;;2.30;;
7158;SDS011;63175;52.374;13.132;2023-02-12T02:43:26;3.20;;;2.83;;
7158;SDS011;63175;52.374;13.132;2023-02-12T02:45:58;5.47;;;2.90;;
7158;SDS011;63175;52.374;13.132;2023-02-12T02:48:31;6.40;;;3.13;;
7158;SDS011;63175;52.374;13.132;2023-02-12T02:51:02;3.60;;;2.93;;
7158;SDS011;63175;52.374;13.132;2023-02-12T02:53:34;3.23;;;2.90;;
7158;SDS011;63175;52.374;13.132;2023-02-12T02:56:05;4.47;;;2.90;;
7158;SDS011;63175;52.374;13.132;2023-02-12T02:58:38;7.00;;;3.53;;
7158;SDS011;63175;52.374;13.132;2023-02-12T03:01:10;4.50;;;3.87;;
7158;SDS011;63175;52.374;13.132;2023-02-12T03:03:43;8.13;;;4.13;;
7158;SDS011;63175;52.374;13.132;2023-02-12T03:06:14;4.43;;;3.23;;
7158;SDS011;63175;52.374;13.132;2023-02-12T03:08:46;6.93;;;3.10;;
7158;SDS011;63175;52.374;13.132;2023-02-12T03:11:16;7.03;;;3.10;;
7158;SDS011;63175;52.374;13.132;2023-02-12T03:13:47;5.10;;;3.10;;
7158;SDS011;63175;52.374;13.132;2023-02-12T03:16:23;3.30;;;2.60;;
7158;SDS011;63175;52.374;13.132;2023-02-12T03:18:53;3.53;;;2.87;;
7158;SDS011;63175;52.374;13.132;2023-02-12T03:21:24;6.67;;;2.40;;
7158;SDS011;63175;52.374;13.132;2023-02-12T03:23:56;3.97;;;2.70;;
7158;SDS011;63175;52.374;13.132;2023-02-12T03:26:30;4.57;;;3.23;;
7158;SDS011;63175;52.374;13.132;2023-02-12T03:29:03;6.93;;;3.60;;
7158;SDS011;63175;52.374;13.132;2023-02-12T03:31:32;5.00;;;3.50;;
7158;SDS011;63175;52.374;13.132;2023-02-12T03:34:08;7.57;;;3.47;;
7158;SDS011;63175;52.374;13.132;2023-02-12T03:36:43;9.13;;;3.73;;
7158;SDS011;63175;52.374;13.132;2023-02-12T03:39:15;9.77;;;3.53;;
7158;SDS011;63175;52.374;13.132;2023-02-12T03:41:53;5.10;;;3.03;;
7158;SDS011;63175;52.374;13.132;2023-02-12T03:44:27;5.50;;;3.00;;
7158;SDS011;63175;52.374;13.132;2023-02-12T03:47:10;9.97;;;4.90;;
7158;SDS011;63175;52.374;13.132;2023-02-12T03:49:48;3.57;;;2.47;;
7158;SDS011;63175;52.374;13.132;2023-02-12T03:52:21;9.60;;;3.63;;
7158;SDS011;63175;52.374;13.132;2023-02-12T03:54:47;7.53;;;4.50;;
7158;SDS011;63175;52.374;13.132;2023-02-12T03:57:16;4.47;;;3.00;;
7158;SDS011;63175;52.374;13.132;2023-02-12T03:59:45;4.23;;;2.97;;
7158;SDS011;63175;52.374;13.132;2023-02-12T04:02:14;8.90;;;3.07;;
7158;SDS011;63175;52.374;13.132;2023-02-12T04:04:43;6.20;;;3.30;;
7158;SDS011;63175;52.374;13.132;2023-02-12T04:07:12;4.00;;;2.67;;
7158;SDS011;63175;52.374;13.132;2023-02-12T04:09:39;8.10;;;3.53;;
7158;SDS011;63175;52.374;13.132;2023-02-12T04:12:16;4.50;;;2.90;;
7158;SDS011;63175;52.374;13.132;2023-02-12T04:14:58;3.77;;;2.83;;
7158;SDS011;63175;52.374;13.132;2023-02-12T04:17:40;5.23;;;2.80;;
7158;SDS011;63175;52.374;13.132;2023-02-12T04:20:15;4.20;;;2.60;;
7158;SDS011;63175;52.374;13.132;2023-02-12T04:22:52;5.57;;;3.10;;
7158;SDS011;63175;52.374;13.132;2023-02-12T04:25:26;2.93;;;2.67;;
7158;SDS011;63175;52.374;13.132;2023-02-12T04:28:10;4.90;;;2.97;;
7158;SDS011;63175;52.374;13.132;2023-02-12T04:30:46;6.03;;;2.47;;
7158;SDS011;63175;52.374;13.132;2023-02-12T04:33:21;6.13;;;2.90;;
7158;SDS011;63175;52.374;13.132;2023-02-12T04:35:51;5.13;;;3.30;;
7158;SDS011;63175;52.374;13.132;2023-02-12T04:38:26;3.83;;;2.20;;
7158;SDS011;63175;52.374;13.132;2023-02-12T04:40:55;6.10;;;2.63;;
7158;SDS011;63175;52.374;13.132;2023-02-12T04:43:27;2.80;;;2.20;;
7158;SDS011;63175;52.374;13.132;2023-02-12T04:45:55;5.20;;;2.20;;
7158;SDS011;63175;52.374;13.132;2023-02-12T04:48:23;4.40;;;2.90;;
7158;SDS011;63175;52.374;13.132;2023-02-12T04:50:50;8.23;;;2.97;;
7158;SDS011;63175;52.374;13.132;2023-02-12T04:53:17;4.17;;;2.67;;
7158;SDS011;63175;52.374;13.132;2023-02-12T04:55:44;3.43;;;2.47;;
7158;SDS011;63175;52.374;13.132;2023-02-12T04:58:13;5.83;;;2.67;;
7158;SDS011;63175;52.374;13.132;2023-02-12T05:00:40;8.47;;;2.40;;
7158;SDS011;63175;52.374;13.132;2023-02-12T05:03:07;6.13;;;2.97;;
7158;SDS011;63175;52.374;13.132;2023-02-12T05:05:35;2.67;;;2.17;;
7158;SDS011;63175;52.374;13.132;2023-02-12T05:08:02;3.10;;;2.33;;
7158;SDS011;63175;52.374;13.132;2023-02-12T05:10:29;4.20;;;2.37;;
7158;SDS011;63175;52.374;13.132;2023-02-12T05:12:55;4.83;;;2.80;;
7158;SDS011;63175;52.374;13.132;2023-02-12T05:15:22;4.53;;;2.10;;
7158;SDS011;63175;52.374;13.132;2023-02-12T05:17:49;3.80;;;2.10;;
7158;SDS011;63175;52.374;13.132;2023-02-12T05:20:16;5.30;;;2.20;;
7158;SDS011;63175;52.374;13.132;2023-02-12T05:22:44;5.83;;;2.80;;
7158;SDS011;63175;52.374;13.132;2023-02-12T05:25:11;2.70;;;1.90;;
7158;SDS011;63175;52.374;13.132;2023-02-12T05:27:38;4.10;;;2.10;;
7158;SDS011;63175;52.374;13.132;2023-02-12T05:30:05;3.83;;;2.30;;
7158;SDS011;63175;52.374;13.132;2023-02-12T05:32:33;4.63;;;2.50;;
7158;SDS011;63175;52.374;13.132;2023-02-12T05:35:00;2.40;;;2.20;;
7158;SDS011;63175;52.374;13.132;2023-02-12T05:37:27;3.90;;;2.30;;
7158;SDS011;63175;52.374;13.132;2023-02-12T05:39:56;2.87;;;1.97;;
7158;SDS011;63175;52.374;13.132;2023-02-12T05:42:23;3.70;;;2.13;;
7158;SDS011;63175;52.374;13.132;2023-02-12T05:44:50;4.40;;;2.00;;
7158;SDS011;63175;52.374;13.132;2023-02-12T05:47:17;4.13;;;1.87;;
7158;SDS011;63175;52.374;13.132;2023-02-12T05:49:44;4.70;;;2.00;;
7158;SDS011;63175;52.374;13.132;2023-02-12T05:52:11;3.73;;;2.13;;
7158;SDS011;63175;52.374;13.132;2023-02-12T05:54:37;3.80;;;2.27;;
7158;SDS011;63175;52.374;13.132;2023-02-12T05:57:06;4.03;;;2.20;;
7158;SDS011;63175;52.374;13.132;2023-02-12T05:59:33;4.30;;;3.07;;
7158;SDS011;63175;52.374;13.132;2023-02-12T06:02:00;5.10;;;2.67;;
7158;SDS011;63175;52.374;13.132;2023-02-12T06:04:27;4.60;;;2.17;;
7158;SDS011;63175;52.374;13.132;2023-02-12T06:06:54;4.20;;;2.10;;
7158;SDS011;63175;52.374;13.132;2023-02-12T06:09:22;4.50;;;2.73;;
7158;SDS011;63175;52.374;13.132;2023-02-12T06:11:49;4.00;;;2.40;;
7158;SDS011;63175;52.374;13.132;2023-02-12T06:14:18;5.10;;;2.70;;
7158;SDS011;63175;52.374;13.132;2023-02-12T06:16:46;2.80;;;1.90;;
7158;SDS011;63175;52.374;13.132;2023-02-12T06:19:14;10.47;;;2.63;;
7158;SDS011;63175;52.374;13.132;2023-02-12T06:21:41;6.83;;;2.57;;
7158;SDS011;63175;52.374;13.132;2023-02-12T06:24:08;3.23;;;2.50;;
7158;SDS011;63175;52.374;13.132;2023-02-12T06:26:36;1.93;;;1.83;;
7158;SDS011;63175;52.374;13.132;2023-02-12T06:29:02;3.30;;;2.27;;
7158;SDS011;63175;52.374;13.132;2023-02-12T06:31:31;4.60;;;3.17;;
7158;SDS011;63175;52.374;13.132;2023-02-12T06:34:00;7.33;;;2.67;;
7158;SDS011;63175;52.374;13.132;2023-02-12T06:36:28;2.63;;;2.20;;
7158;SDS011;63175;52.374;13.132;2023-02-12T06:38:55;3.57;;;2.53;;
7158;SDS011;63175;52.374;13.132;2023-02-12T06:41:22;4.00;;;2.63;;
7158;SDS011;63175;52.374;13.132;2023-02-12T06:43:49;4.43;;;2.60;;
7158;SDS011;63175;52.374;13.132;2023-02-12T06:46:16;4.43;;;2.20;;
7158;SDS011;63175;52.374;13.132;2023-02-12T06:48:44;6.03;;;2.70;;
7158;SDS011;63175;52.374;13.132;2023-02-12T06:51:12;5.33;;;2.40;;
7158;SDS011;63175;52.374;13.132;2023-02-12T06:53:40;4.23;;;2.33;;
7158;SDS011;63175;52.374;13.132;2023-02-12T06:56:08;5.80;;;2.60;;
7158;SDS011;63175;52.374;13.132;2023-02-12T06:58:37;9.80;;;2.67;;
7158;SDS011;63175;52.374;13.132;2023-02-12T07:01:07;5.17;;;3.43;;
7158;SDS011;63175;52.374;13.132;2023-02-12T07:03:37;5.60;;;2.53;;
7158;SDS011;63175;52.374;13.132;2023-02-12T07:06:06;2.70;;;2.00;;
7158;SDS011;63175;52.374;13.132;2023-02-12T07:08:33;3.37;;;2.33;;
7158;SDS011;63175;52.374;13.132;2023-02-12T07:11:00;7.97;;;2.60;;
7158;SDS011;63175;52.374;13.132;2023-02-12T07:13:27;4.47;;;2.70;;
7158;SDS011;63175;52.374;13.132;2023-02-12T07:15:54;6.23;;;2.53;;
7158;SDS011;63175;52.374;13.132;2023-02-12T07:18:21;3.67;;;2.53;;
7158;SDS011;63175;52.374;13.132;2023-02-12T07:20:47;8.03;;;2.50;;
7158;SDS011;63175;52.374;13.132;2023-02-12T07:23:16;7.23;;;2.60;;
7158;SDS011;63175;52.374;13.132;2023-02-12T07:25:43;5.10;;;2.30;;
7158;SDS011;63175;52.374;13.132;2023-02-12T07:28:09;4.93;;;3.03;;
7158;SDS011;63175;52.374;13.132;2023-02-12T07:30:36;4.50;;;2.60;;
7158;SDS011;63175;52.374;13.132;2023-02-12T07:33:03;2.60;;;2.10;;
7158;SDS011;63175;52.374;13.132;2023-02-12T07:35:30;4.23;;;2.40;;
7158;SDS011;63175;52.374;13.132;2023-02-12T07:37:57;2.03;;;1.83;;
7158;SDS011;63175;52.374;13.132;2023-02-12T07:40:25;3.13;;;2.13;;
7158;SDS011;63175;52.374;13.132;2023-02-12T07:42:53;3.40;;;2.20;;
7158;SDS011;63175;52.374;13.132;2023-02-12T07:45:20;2.80;;;2.10;;
7158;SDS011;63175;52.374;13.132;2023-02-12T07:47:47;4.07;;;2.60;;
7158;SDS011;63175;52.374;13.132;2023-02-12T07:50:15;4.27;;;1.97;;
7158;SDS011;63175;52.374;13.132;2023-02-12T07:52:42;3.20;;;1.70;;
7158;SDS011;63175;52.374;13.132;2023-02-12T07:55:08;3.47;;;2.30;;
7158;SDS011;63175;52.374;13.132;2023-02-12T07:57:37;3.90;;;1.70;;
7158;SDS011;63175;52.374;13.132;2023-02-12T08:00:04;3.93;;;2.20;;
7158;SDS011;63175;52.374;13.132;2023-02-12T08:02:32;5.60;;;2.33;;
7158;SDS011;63175;52.374;13.132;2023-02-12T08:04:58;4.77;;;2.37;;
7158;SDS011;63175;52.374;13.132;2023-02-12T08:07:26;2.83;;;2.53;;
7158;SDS011;63175;52.374;13.132;2023-02-12T08:09:52;5.40;;;2.43;;
7158;SDS011;63175;52.374;13.132;2023-02-12T08:12:19;3.57;;;3.10;;
7158;SDS011;63175;52.374;13.132;2023-02-12T08:14:49;3.93;;;2.43;;
7158;SDS011;63175;52.374;13.132;2023-02-12T08:17:15;3.03;;;2.60;;
7158;SDS011;63175;52.374;13.132;2023-02-12T08:19:42;3.20;;;2.37;;
7158;SDS011;63175;52.374;13.132;2023-02-12T08:22:09;4.53;;;2.40;;
7158;SDS011;63175;52.374;13.132;2023-02-12T08:24:36;4.30;;;2.80;;
7158;SDS011;63175;52.374;13.132;2023-02-12T08:27:04;7.03;;;2.93;;
7158;SDS011;63175;52.374;13.132;2023-02-12T08:29:31;5.63;;;2.40;;
7158;SDS011;63175;52.374;13.132;2023-02-12T08:31:59;3.83;;;2.40;;
7158;SDS011;63175;52.374;13.132;2023-02-12T08:34:28;3.90;;;2.27;;
7158;SDS011;63175;52.374;13.132;2023-02-12T08:36:57;2.60;;;2.40;;
7158;SDS011;63175;52.374;13.132;2023-02-12T08:39:25;3.60;;;2.33;;
7158;SDS011;63175;52.374;13.132;2023-02-12T08:41:53;5.77;;;3.47;;
7158;SDS011;63175;52.374;13.132;2023-02-12T08:44:21;9.37;;;4.30;;
7158;SDS011;63175;52.374;13.132;2023-02-12T08:46:49;7.20;;;2.70;;
7158;SDS011;63175;52.374;13.132;2023-02-12T08:49:19;6.00;;;3.40;;
7158;SDS011;63175;52.374;13.132;2023-02-12T08:51:47;9.90;;;4.00;;
7158;SDS011;63175;52.374;13.132;2023-02-12T08:54:16;9.67;;;4.63;;
7158;SDS011;63175;52.374;13.132;2023-02-12T08:56:44;11.13;;;5.07;;
7158;SDS011;63175;52.374;13.132;2023-02-12T08:59:11;9.83;;;4.57;;
7158;SDS011;63175;52.374;13.132;2023-02-12T09:01:40;13.53;;;4.27;;
7158;SDS011;63175;52.374;13.132;2023-02-12T09:04:08;12.23;;;4.40;;
7158;SDS011;63175;52.374;13.132;2023-02-12T09:06:40;9.70;;;3.73;;
7158;SDS011;63175;52.374;13.132;2023-02-12T09:09:07;4.17;;;3.00;;
7158;SDS011;63175;52.374;13.132;2023-02-12T09:11:34;4.30;;;3.10;;
7158;SDS011;63175;52.374;13.132;2023-02-12T09:14:02;5.37;;;3.20;;
7158;SDS011;63175;52.374;13.132;2023-02-12T09:16:30;10.00;;;3.33;;
7158;SDS011;63175;52.374;13.132;2023-02-12T09:18:59;3.93;;;3.40;;
7158;SDS011;63175;52.374;13.132;2023-02-12T09:21:26;5.13;;;2.90;;
7158;SDS011;63175;52.374;13.132;2023-02-12T09:23:54;5.53;;;3.40;;
7158;SDS011;63175;52.374;13.132;2023-02-12T09:26:22;8.30;;;4.27;;
7158;SDS011;63175;52.374;13.132;2023-02-12T09:28:51;8.57;;;3.90;;
7158;SDS011;63175;52.374;13.132;2023-02-12T09:31:18;9.50;;;4.60;;
7158;SDS011;63175;52.374;13.132;2023-02-12T09:33:47;11.93;;;4.20;;
7158;SDS011;63175;52.374;13.132;2023-02-12T09:36:14;9.57;;;4.30;;
7158;SDS011;63175;52.374;13.132;2023-02-12T09:38:42;7.07;;;3.73;;
7158;SDS011;63175;52.374;13.132;2023-02-12T09:41:18;7.10;;;3.40;;
7158;SDS011;63175;52.374;13.132;2023-02-12T09:44:10;6.70;;;4.10;;
7158;SDS011;63175;52.374;13.132;2023-02-12T09:46:44;5.63;;;4.50;;
7158;SDS011;63175;52.374;13.132;2023-02-12T09:49:18;9.90;;;5.80;;
7158;SDS011;63175;52.374;13.132;2023-02-12T09:51:59;8.87;;;5.17;;
7158;SDS011;63175;52.374;13.132;2023-02-12T09:54:27;7.07;;;4.90;;
7158;SDS011;63175;52.374;13.132;2023-02-12T09:57:04;8.67;;;5.13;;
7158;SDS011;63175;52.374;13.132;2023-02-12T09:59:38;15.27;;;6.80;;
7158;SDS011;63175;52.374;13.132;2023-02-12T10:02:10;9.70;;;5.97;;
7158;SDS011;63175;52.374;13.132;2023-02-12T10:04:40;8.40;;;6.20;;
7158;SDS011;63175;52.374;13.132;2023-02-12T10:07:12;8.13;;;5.40;;
7158;SDS011;63175;52.374;13.132;2023-02-12T10:09:55;8.63;;;5.47;;
7158;SDS011;63175;52.374;13.132;2023-02-12T10:12:33;6.37;;;5.40;;
7158;SDS011;63175;52.374;13.132;2023-02-12T10:15:08;7.73;;;5.10;;
7158;SDS011;63175;52.374;13.132;2023-02-12T10:17:47;9.50;;;5.70;;
7158;SDS011;63175;52.374;13.132;2023-02-12T10:20:24;10.43;;;5.67;;
7158;SDS011;63175;52.374;13.132;2023-02-12T10:23:07;10.50;;;6.70;;
7158;SDS011;63175;52.374;13.132;2023-02-12T10:25:50;10.30;;;6.40;;
7158;SDS011;63175;52.374;13.132;2023-02-12T10:28:23;11.70;;;7.07;;
7158;SDS011;63175;52.374;13.132;2023-02-12T10:30:52;12.90;;;6.37;;
7158;SDS011;63175;52.374;13.132;2023-02-12T10:33:24;16.90;;;8.53;;
7158;SDS011;63175;52.374;13.132;2023-02-12T10:35:56;10.77;;;6.90;;
7158;SDS011;63175;52.374;13.132;2023-02-12T10:38:29;9.57;;;6.30;;
7158;SDS011;63175;52.374;13.132;2023-02-12T10:41:00;13.70;;;6.83;;
7158;SDS011;63175;52.374;13.132;2023-02-12T10:43:28;13.33;;;5.70;;
7158;SDS011;63175;52.374;13.132;2023-02-12T10:45:55;11.67;;;7.20;;
7158;SDS011;63175;52.374;13.132;2023-02-12T10:48:24;9.67;;;5.33;;
7158;SDS011;63175;52.374;13.132;2023-02-12T10:50:59;6.50;;;4.70;;
7158;SDS011;63175;52.374;13.132;2023-02-12T10:53:37;5.23;;;4.27;;
7158;SDS011;63175;52.374;13.132;2023-02-12T10:56:09;6.70;;;5.10;;
7158;SDS011;63175;52.374;13.132;2023-02-12T10:58:51;4.73;;;3.83;;
7158;SDS011;63175;52.374;13.132;2023-02-12T11:01:20;7.40;;;4.30;;
7158;SDS011;63175;52.374;13.132;2023-02-12T11:03:51;5.53;;;3.63;;
7158;SDS011;63175;52.374;13.132;2023-02-12T11:06:19;10.80;;;4.10;;
7158;SDS011;63175;52.374;13.132;2023-02-12T11:08:48;5.60;;;4.43;;
7158;SDS011;63175;52.374;13.132;2023-02-12T11:11:15;8.93;;;5.10;;
7158;SDS011;63175;52.374;13.132;2023-02-12T11:13:53;7.63;;;4.83;;
7158;SDS011;63175;52.374;13.132;2023-02-12T11:16:26;7.17;;;5.57;;
7158;SDS011;63175;52.374;13.132;2023-02-12T11:18:59;8.57;;;5.90;;
7158;SDS011;63175;52.374;13.132;2023-02-12T11:21:28;12.90;;;6.57;;
7158;SDS011;63175;52.374;13.132;2023-02-12T11:23:56;9.90;;;5.43;;
7158;SDS011;63175;52.374;13.132;2023-02-12T11:26:43;11.07;;;6.53;;
7158;SDS011;63175;52.374;13.132;2023-02-12T11:29:17;8.87;;;5.97;;
7158;SDS011;63175;52.374;13.132;2023-02-12T11:31:58;13.07;;;5.93;;
7158;SDS011;63175;52.374;13.132;2023-02-12T11:34:26;6.60;;;5.27;;
7158;SDS011;63175;52.374;13.132;2023-02-12T11:36:54;12.77;;;6.27;;
7158;SDS011;63175;52.374;13.132;2023-02-12T11:39:22;9.97;;;6.30;;
7158;SDS011;63175;52.374;13.132;2023-02-12T11:41:53;13.60;;;5.83;;
7158;SDS011;63175;52.374;13.132;2023-02-12T11:44:23;5.50;;;5.00;;
7158;SDS011;63175;52.374;13.132;2023-02-12T11:46:53;6.03;;;4.73;;
7158;SDS011;63175;52.374;13.132;2023-02-12T11:49:23;10.00;;;5.17;;
7158;SDS011;63175;52.374;13.132;2023-02-12T11:51:53;9.93;;;5.27;;
7158;SDS011;63175;52.374;13.132;2023-02-12T11:54:21;6.27;;;5.10;;
7158;SDS011;63175;52.374;13.132;2023-02-12T11:56:51;8.40;;;4.60;;
7158;SDS011;63175;52.374;13.132;2023-02-12T12:02:08;5.73;;;5.10;;
7158;SDS011;63175;52.374;13.132;2023-02-12T12:04:43;4.10;;;3.67;;
7158;SDS011;63175;52.374;13.132;2023-02-12T12:07:13;5.20;;;4.23;;
7158;SDS011;63175;52.374;13.132;2023-02-12T12:09:46;8.30;;;4.83;;
7158;SDS011;63175;52.374;13.132;2023-02-12T12:12:18;6.07;;;4.23;;
7158;SDS011;63175;52.374;13.132;2023-02-12T12:14:50;8.83;;;5.33;;
7158;SDS011;63175;52.374;13.132;2023-02-12T12:17:40;5.37;;;4.70;;
7158;SDS011;63175;52.374;13.132;2023-02-12T12:20:30;6.30;;;4.90;;
7158;SDS011;63175;52.374;13.132;2023-02-12T12:23:05;5.80;;;4.37;;
7158;SDS011;63175;52.374;13.132;2023-02-12T12:25:39;5.80;;;4.90;;
7158;SDS011;63175;52.374;13.132;2023-02-12T12:28:16;4.50;;;3.83;;
7158;SDS011;63175;52.374;13.132;2023-02-12T12:31:03;6.47;;;4.23;;
7158;SDS011;63175;52.374;13.132;2023-02-12T12:33:36;5.87;;;4.77;;
7158;SDS011;63175;52.374;13.132;2023-02-12T12:36:22;6.50;;;5.10;;
7158;SDS011;63175;52.374;13.132;2023-02-12T12:39:18;7.23;;;4.70;;
7158;SDS011;63175;52.374;13.132;2023-02-12T12:41:58;6.73;;;5.17;;
7158;SDS011;63175;52.374;13.132;2023-02-12T12:44:50;8.57;;;4.83;;
7158;SDS011;63175;52.374;13.132;2023-02-12T12:47:31;5.67;;;4.67;;
7158;SDS011;63175;52.374;13.132;2023-02-12T12:50:17;6.53;;;4.70;;
7158;SDS011;63175;52.374;13.132;2023-02-12T12:53:03;5.50;;;5.00;;
7158;SDS011;63175;52.374;13.132;2023-02-12T12:55:43;4.93;;;4.37;;
7158;SDS011;63175;52.374;13.132;2023-02-12T12:58:21;6.50;;;4.77;;
7158;SDS011;63175;52.374;13.132;2023-02-12T13:00:58;5.27;;;4.33;;
7158;SDS011;63175;52.374;13.132;2023-02-12T13:03:46;5.30;;;3.90;;
7158;SDS011;63175;52.374;13.132;2023-02-12T13:06:32;8.10;;;4.83;;
7158;SDS011;63175;52.374;13.132;2023-02-12T13:09:21;7.27;;;5.17;;
7158;SDS011;63175;52.374;13.132;2023-02-12T13:12:02;5.10;;;4.60;;
7158;SDS011;63175;52.374;13.132;2023-02-12T13:14:40;4.40;;;4.00;;
7158;SDS011;63175;52.374;13.132;2023-02-12T13:17:12;6.50;;;4.33;;
7158;SDS011;63175;52.374;13.132;2023-02-12T13:19:53;6.83;;;4.30;;
7158;SDS011;63175;52.374;13.132;2023-02-12T13:22:27;6.97;;;4.67;;
7158;SDS011;63175;52.374;13.132;2023-02-12T13:25:00;3.40;;;3.10;;
7158;SDS011;63175;52.374;13.132;2023-02-12T13:27:34;5.70;;;4.40;;
7158;SDS011;63175;52.374;13.132;2023-02-12T13:30:05;5.80;;;4.27;;
7158;SDS011;63175;52.374;13.132;2023-02-12T13:32:42;7.53;;;3.90;;
7158;SDS011;63175;52.374;13.132;2023-02-12T13:35:15;7.93;;;3.93;;
7158;SDS011;63175;52.374;13.132;2023-02-12T13:37:46;5.00;;;3.30;;
7158;SDS011;63175;52.374;13.132;2023-02-12T13:40:17;4.70;;;3.40;;
7158;SDS011;63175;52.374;13.132;2023-02-12T13:42:46;3.53;;;3.07;;
7158;SDS011;63175;52.374;13.132;2023-02-12T13:45:20;5.37;;;3.20;;
7158;SDS011;63175;52.374;13.132;2023-02-12T13:47:59;7.97;;;3.60;;
7158;SDS011;63175;52.374;13.132;2023-02-12T13:50:39;4.90;;;4.37;;
7158;SDS011;63175;52.374;13.132;2023-02-12T13:53:13;5.67;;;4.20;;
7158;SDS011;63175;52.374;13.132;2023-02-12T13:55:51;4.30;;;3.53;;
7158;SDS011;63175;52.374;13.132;2023-02-12T13:58:44;4.30;;;3.30;;
7158;SDS011;63175;52.374;13.132;2023-02-12T14:04:13;4.17;;;3.80;;
7158;SDS011;63175;52.374;13.132;2023-02-12T14:06:57;4.50;;;3.77;;
7158;SDS011;63175;52.374;13.132;2023-02-12T14:09:28;4.50;;;3.73;;
7158;SDS011;63175;52.374;13.132;2023-02-12T14:12:01;5.17;;;3.90;;
7158;SDS011;63175;52.374;13.132;2023-02-12T14:14:31;5.10;;;3.63;;
7158;SDS011;63175;52.374;13.132;2023-02-12T14:20:06;3.97;;;3.37;;
7158;SDS011;63175;52.374;13.132;2023-02-12T14:25:56;3.97;;;3.20;;
7158;SDS011;63175;52.374;13.132;2023-02-12T14:28:40;5.00;;;3.20;;
7158;SDS011;63175;52.374;13.132;2023-02-12T14:31:29;3.43;;;2.90;;
7158;SDS011;63175;52.374;13.132;2023-02-12T14:37:14;4.50;;;3.20;;
7158;SDS011;63175;52.374;13.132;2023-02-12T14:39:43;4.50;;;2.80;;
7158;SDS011;63175;52.374;13.132;2023-02-12T14:47:58;7.33;;;3.73;;
7158;SDS011;63175;52.374;13.132;2023-02-12T14:50:28;5.90;;;3.70;;
7158;SDS011;63175;52.374;13.132;2023-02-12T14:53:05;4.97;;;3.40;;
7158;SDS011;63175;52.374;13.132;2023-02-12T14:55:42;3.30;;;2.83;;
7158;SDS011;63175;52.374;13.132;2023-02-12T14:58:16;4.30;;;3.07;;
7158;SDS011;63175;52.374;13.132;2023-02-12T15:00:45;3.20;;;2.57;;
7158;SDS011;63175;52.374;13.132;2023-02-12T15:03:16;3.20;;;2.87;;
7158;SDS011;63175;52.374;13.132;2023-02-12T15:05:51;5.10;;;3.57;;
7158;SDS011;63175;52.374;13.132;2023-02-12T15:08:25;4.43;;;3.33;;
7158;SDS011;63175;52.374;13.132;2023-02-12T15:10:58;3.53;;;3.10;;
7158;SDS011;63175;52.374;13.132;2023-02-12T15:13:40;5.93;;;3.70;;
7158;SDS011;63175;52.374;13.132;2023-02-12T15:16:14;3.70;;;2.90;;
7158;SDS011;63175;52.374;13.132;2023-02-12T15:18:49;6.80;;;3.20;;
7158;SDS011;63175;52.374;13.132;2023-02-12T15:21:20;4.27;;;2.70;;
7158;SDS011;63175;52.374;13.132;2023-02-12T15:23:56;5.20;;;2.80;;
7158;SDS011;63175;52.374;13.132;2023-02-12T15:26:28;4.13;;;2.10;;
7158;SDS011;63175;52.374;13.132;2023-02-12T15:28:59;1.43;;;1.30;;
7158;SDS011;63175;52.374;13.132;2023-02-12T15:31:28;1.97;;;1.30;;
7158;SDS011;63175;52.374;13.132;2023-02-12T15:33:56;1.80;;;1.57;;
7158;SDS011;63175;52.374;13.132;2023-02-12T15:36:25;2.67;;;1.70;;